Data for 05/27/2018

Time Sea-Level Adjusted Pressure Absolute Pressure Temperature Relative Humidity Dew Point   
(mb) (inHg) (mb) (inHg) (C) (F) (%) (C) (F)
00:05 1018 30.06 847 25.01 14.8 58.6 64 8.2 46.7
00:10 1018 30.06 847 25.01 14.9 58.8 60 7.3 45.2
00:15 1018 30.06 847 25.01 15.3 59.6 57 6.9 44.4
00:20 1018 30.06 847 25.01 15.6 60.1 56 7 44.7
00:25 1018 30.06 847 25.01 15.6 60 57 7.3 45.1
00:30 1018 30.06 847 25.01 15.5 59.9 59 7.5 45.5
00:35 1018 30.06 847 25.01 15 58.9 59 7.1 44.8
00:40 1018 30.06 847 25.01 15.1 59.1 58 7 44.7
00:45 1018 30.06 847 25.01 15.1 59.2 60 7.5 45.5
00:50 1018 30.06 847 25.01 14.5 58 62 7.4 45.3
00:55 1018 30.06 847 25.01 14.4 57.9 63 7.5 45.5
01:00 1018 30.06 847 25.01 14.1 57.3 65 7.6 45.8
01:05 1018 30.06 847 25.01 13.5 56.3 68 7.7 45.9
01:10 1018 30.06 847 25.01 13.3 55.9 67 7.5 45.4
01:15 1018 30.06 847 25.01 13.3 55.9 67 7.4 45.3
01:20 1018 30.06 847 25.01 13.2 55.8 66 7.1 44.9
01:25 1018 30.06 847 25.01 13.4 56 66 7.1 44.8
01:30 1018 30.06 847 25.01 13.4 56.1 66 7.2 44.9
01:35 1018 30.06 847 25.01 13.1 55.6 68 7.4 45.2
01:40 1017 30.03 847 25.01 12.9 55.1 69 7.3 45.1
01:45 1017 30.03 847 25.01 12.7 54.9 69 7.2 45
01:50 1017 30.03 847 25.01 12.6 54.6 69 7 44.6
01:55 1017 30.03 847 25.01 12.5 54.6 70 7.3 45.1
02:00 1017 30.03 847 25.01 12.3 54.2 70 7.1 44.9
02:05 1017 30.03 847 25.01 12.1 53.8 71 7 44.6
02:10 1017 30.03 847 25.01 12 53.6 70 6.8 44.3
02:15 1017 30.03 847 25.01 12 53.6 70 6.8 44.3
02:20 1017 30.03 847 25.01 12 53.5 71 7 44.5
02:25 1017 30.03 847 25.01 11.7 53 73 7 44.6
02:30 1017 30.03 847 25.01 11.5 52.7 73 6.9 44.4
02:35 1017 30.03 847 25.01 11.4 52.6 73 6.9 44.4
02:40 1017 30.03 847 25.01 11.5 52.6 73 6.8 44.3
02:45 1017 30.03 847 25.01 11.6 52.9 72 6.7 44
02:50 1017 30.03 847 25.01 12 53.7 70 6.7 44.1
02:55 1018 30.06 847 25.01 12 53.7 69 6.5 43.8
03:00 1018 30.06 847 25.01 11.8 53.3 71 6.7 44.1
03:05 1018 30.06 847 25.01 11.3 52.3 72 6.5 43.6
03:10 1018 30.06 847 25.01 11.2 52.1 73 6.5 43.8
03:15 1018 30.06 847 25.01 10.8 51.5 74 6.4 43.6
03:20 1018 30.06 847 25.01 10.6 51.1 75 6.3 43.4
03:25 1018 30.06 847 25.01 10.5 50.9 75 6.3 43.3
03:30 1018 30.06 847 25.01 10.5 50.9 74 6.1 43.1
03:35 1018 30.06 847 25.01 10.6 51 74 6.2 43.1
03:40 1018 30.06 847 25.01 10.4 50.7 75 6.2 43.1
03:45 1018 30.06 847 25.01 10.2 50.4 76 6.2 43.2
03:50 1018 30.06 848 25.04 10.2 50.3 75 6 42.7
03:55 1019 30.09 848 25.04 10.3 50.6 76 6.2 43.2
04:00 1019 30.09 848 25.04 10.3 50.5 75 6.2 43.1
04:05 1019 30.09 848 25.04 10.3 50.6 75 6.2 43.1
04:10 1019 30.09 848 25.04 10.3 50.6 74 6 42.8
04:15 1019 30.09 848 25.04 10.4 50.8 74 6.1 42.9
04:20 1019 30.09 848 25.04 10.3 50.6 75 6.2 43.1
04:25 1019 30.09 848 25.04 10.3 50.5 74 5.8 42.4
04:30 1019 30.09 848 25.04 10.7 51.2 72 5.9 42.7
04:35 1019 30.09 848 25.04 10.5 50.9 75 6.2 43.2
04:40 1019 30.09 848 25.04 10.1 50.3 75 6 42.8
04:45 1019 30.09 848 25.04 9.9 49.9 77 6.1 42.9
04:50 1019 30.09 848 25.04 9.7 49.4 78 6 42.8
04:55 1019 30.09 848 25.04 9.7 49.4 78 6 42.7
05:00 1019 30.09 848 25.04 9.6 49.3 78 6 42.7
05:05 1019 30.09 848 25.04 9.7 49.4 78 6 42.8
05:10 1019 30.09 848 25.04 9.6 49.3 78 6 42.7
05:15 1019 30.09 848 25.04 9.7 49.4 77 5.9 42.7
05:20 1019 30.09 848 25.04 9.9 49.9 77 6 42.9
05:25 1019 30.09 848 25.04 10 50 76 6.1 42.9
05:30 1019 30.09 848 25.04 10.1 50.1 76 6 42.8
05:35 1019 30.09 848 25.04 10.1 50.2 76 6.1 43
05:40 1019 30.09 848 25.04 10.2 50.3 76 6.1 43
05:45 1019 30.09 848 25.04 10.2 50.3 75 5.9 42.6
05:50 1019 30.09 848 25.04 10.6 51 73 6 42.9
05:55 1019 30.09 848 25.04 10.6 51 74 6.2 43.1
06:00 1019 30.09 848 25.04 10.4 50.8 74 6.1 42.9
06:05 1019 30.09 848 25.04 10.3 50.5 75 6.1 42.9
06:10 1019 30.09 848 25.04 10.1 50.2 76 6.1 43
06:15 1019 30.09 849 25.07 9.9 49.8 76 5.9 42.7
06:20 1019 30.09 849 25.07 10 49.9 76 5.9 42.6
06:25 1019 30.09 849 25.07 10 50 76 6 42.9
06:30 1019 30.09 849 25.07 10.1 50.2 76 6 42.8
06:35 1019 30.09 849 25.07 10.3 50.5 74 5.9 42.6
06:40 1019 30.09 849 25.07 10.6 51.1 73 6 42.8
06:45 1019 30.09 849 25.07 10.7 51.3 73 6.2 43.1
06:50 1020 30.12 849 25.07 10.6 51.1 74 6.2 43.2
06:55 1020 30.12 849 25.07 10.6 51.1 73 6 42.9
07:00 1020 30.12 849 25.07 10.9 51.7 73 6.2 43.2
07:05 1020 30.12 849 25.07 11.4 52.5 71 6.4 43.5
07:10 1020 30.12 849 25.07 11.9 53.5 69 6.4 43.5
07:15 1020 30.12 849 25.07 12.5 54.5 67 6.7 44.1
07:20 1020 30.12 849 25.07 12.4 54.3 68 6.6 43.9
07:25 1020 30.12 849 25.07 12.6 54.7 68 6.9 44.4
07:30 1020 30.12 849 25.07 12.7 54.8 67 6.7 44.1
07:35 1020 30.12 849 25.07 12.6 54.7 68 6.8 44.3
07:40 1020 30.12 849 25.07 12.8 55.1 67 6.9 44.4
07:45 1020 30.12 849 25.07 13.5 56.2 64 6.8 44.3
07:50 1020 30.12 849 25.07 13.6 56.5 62 6.5 43.7
07:55 1020 30.12 849 25.07 14.3 57.7 60 6.6 43.9
08:00 1020 30.12 849 25.07 14.4 57.9 61 7.1 44.8
08:05 1020 30.12 849 25.07 14.4 57.9 60 6.8 44.2
08:10 1020 30.12 849 25.07 14.7 58.4 61 7.3 45.2
08:15 1020 30.12 849 25.07 14.7 58.5 62 7.5 45.4
08:20 1020 30.12 849 25.07 15.3 59.5 58 7.2 44.9
08:25 1020 30.12 849 25.07 15.7 60.2 57 7.3 45.2
08:30 1020 30.12 849 25.07 15.5 59.9 57 7.1 44.8
08:35 1020 30.12 849 25.07 15.7 60.3 55 6.9 44.4
08:40 1020 30.12 849 25.07 15.9 60.7 56 7.1 44.9
08:45 1020 30.12 849 25.07 15.6 60 57 7.2 44.9
08:50 1020 30.12 849 25.07 15.2 59.4 58 7.1 44.9
08:55 1020 30.12 849 25.07 15.1 59.1 59 7.1 44.8
09:00 1020 30.12 849 25.07 15.2 59.3 58 7.1 44.8
09:05 1020 30.12 849 25.07 15.2 59.3 58 7.1 44.8
09:10 1020 30.12 849 25.07 15.3 59.5 59 7.3 45.2
09:15 1020 30.12 849 25.07 15.1 59.2 60 7.5 45.5
09:20 1020 30.12 849 25.07 14.7 58.4 62 7.5 45.5
09:25 1020 30.12 849 25.07 15.1 59.1 60 7.6 45.6
09:30 1020 30.12 850 25.1 15.2 59.3 60 7.6 45.7
09:35 1020 30.12 850 25.1 15.3 59.5 60 7.7 45.9
09:40 1020 30.12 850 25.1 15.6 60.1 60 7.9 46.2
09:45 1020 30.12 850 25.1 15.7 60.2 60 8 46.4
09:50 1020 30.12 850 25.1 15.5 59.8 61 8 46.3
09:55 1020 30.12 850 25.1 15.7 60.3 60 7.9 46.3
10:00 1020 30.12 850 25.1 15.7 60.3 60 8 46.4
10:05 1021 30.15 850 25.1 15.9 60.7 57 7.6 45.7
10:10 1021 30.15 850 25.1 16 60.8 58 7.7 45.9
10:15 1021 30.15 850 25.1 16.2 61.1 58 8 46.3
10:20 1021 30.15 850 25.1 16.4 61.4 57 7.9 46.3
10:25 1021 30.15 850 25.1 16.6 61.9 57 8.1 46.6
10:30 1021 30.15 850 25.1 17 62.6 55 7.9 46.2
10:35 1021 30.15 850 25.1 17.5 63.5 52 7.6 45.7
10:40 1021 30.15 850 25.1 17.8 64 51 7.7 45.8
10:45 1021 30.15 850 25.1 17.6 63.7 52 7.8 46
10:50 1021 30.15 850 25.1 17.5 63.4 55 8.5 47.3
10:55 1021 30.15 850 25.1 16.8 62.3 56 8 46.4
11:00 1021 30.15 850 25.1 17.1 62.8 55 8.1 46.5
11:05 1021 30.15 850 25.1 16.9 62.4 55 8 46.4
11:10 1021 30.15 850 25.1 17.1 62.9 52 7.2 45
11:15 1021 30.15 850 25.1 17.4 63.4 52 7.6 45.6
11:20 1021 30.15 850 25.1 18.1 64.6 51 8 46.5
11:25 1021 30.15 850 25.1 17.8 64 53 8.2 46.7
11:30 1021 30.15 850 25.1 17.5 63.6 53 8.1 46.5
11:35 1021 30.15 850 25.1 17.5 63.4 51 7.3 45.2
11:40 1021 30.15 850 25.1 17.5 63.4 54 8.2 46.7
11:45 1021 30.15 850 25.1 17.7 63.9 50 7.3 45.1
11:50 1021 30.15 850 25.1 18.6 65.5 49 7.9 46.1
11:55 1021 30.15 850 25.1 18.7 65.6 50 8.1 46.7
12:00 1021 30.15 850 25.1 18.5 65.3 49 7.8 46.1
12:05 1021 30.15 850 25.1 17.9 64.2 52 8 46.3
12:10 1021 30.15 850 25.1 17.8 64 50 7.3 45.1
12:15 1021 30.15 850 25.1 18.4 65.2 48 7.4 45.3
12:20 1021 30.15 850 25.1 19.6 67.3 45 7.5 45.4
12:25 1021 30.15 850 25.1 20.3 68.5 43 7.4 45.3
12:30 1021 30.15 850 25.1 20.5 68.8 43 7.7 45.9
12:35 1021 30.15 850 25.1 20.1 68.1 45 8 46.3
12:40 1021 30.15 850 25.1 19.6 67.4 45 7.7 45.8
12:45 1021 30.15 850 25.1 19.3 66.8 47 8 46.3
12:50 1021 30.15 850 25.1 19.3 66.7 46 7.5 45.5
12:55 1021 30.15 850 25.1 19.3 66.7 48 8.2 46.8
13:00 1020 30.12 850 25.1 19.6 67.4 46 7.8 46
13:05 1020 30.12 850 25.1 19.9 67.8 46 8.2 46.8
13:10 1020 30.12 849 25.07 20.1 68.1 46 8.3 47
13:15 1020 30.12 849 25.07 20.6 69 45 8.2 46.8
13:20 1020 30.12 849 25.07 20.3 68.6 47 8.8 47.8
13:25 1020 30.12 849 25.07 20.4 68.8 45 8.3 47
13:30 1020 30.12 849 25.07 20.7 69.2 44 8.3 46.9
13:35 1020 30.12 849 25.07 20.7 69.2 45 8.3 47
13:40 1020 30.12 849 25.07 20.5 68.9 45 8.2 46.8
13:45 1020 30.12 849 25.07 19.6 67.3 47 8.3 46.9
13:50 1020 30.12 849 25.07 19.5 67.1 46 7.7 45.8
13:55 1020 30.12 849 25.07 20.7 69.2 43 7.9 46.3
14:00 1020 30.12 849 25.07 20.8 69.4 43 7.9 46.3
14:05 1020 30.12 849 25.07 20.6 69.1 43 7.8 46.1
14:10 1020 30.12 849 25.07 21.1 70 43 8.1 46.5
14:15 1020 30.12 849 25.07 21.5 70.8 42 8.2 46.7
14:20 1020 30.12 849 25.07 21.2 70.1 44 8.6 47.6
14:25 1020 30.12 849 25.07 20 68 47 8.6 47.4
14:30 1020 30.12 849 25.07 20.1 68.2 46 8.2 46.8
14:35 1020 30.12 849 25.07 19.7 67.5 47 8.4 47.1
14:40 1020 30.12 849 25.07 20.2 68.3 46 8.2 46.8
14:45 1020 30.12 849 25.07 20.3 68.6 45 8.1 46.6
14:50 1019 30.09 849 25.07 20.3 68.6 43 7.6 45.6
14:55 1019 30.09 849 25.07 19.8 67.6 43 7.1 44.8
15:00 1019 30.09 849 25.07 19.8 67.7 43 7 44.5
15:05 1019 30.09 849 25.07 20 68 41 6.6 44
15:10 1019 30.09 849 25.07 20.2 68.3 42 7.2 44.9
15:15 1019 30.09 849 25.07 20.6 69 41 6.8 44.3
15:20 1019 30.09 849 25.07 20.8 69.4 40 6.9 44.5
15:25 1019 30.09 849 25.07 20.4 68.7 41 6.7 44
15:30 1020 30.12 849 25.07 20.1 68.2 41 6.7 44.1
15:35 1020 30.12 849 25.07 20 68 43 7.1 44.7
15:40 1020 30.12 849 25.07 19.9 67.9 41 6.6 43.9
15:45 1020 30.12 849 25.07 19.9 67.7 41 6.3 43.3
15:50 1020 30.12 849 25.07 20 68.1 40 6 42.8
15:55 1020 30.12 849 25.07 20.2 68.3 40 6.4 43.5
16:00 1020 30.12 849 25.07 19.8 67.7 42 6.6 43.9
16:05 1020 30.12 849 25.07 19.8 67.7 42 6.5 43.7
16:10 1019 30.09 849 25.07 19.7 67.4 43 6.8 44.2
16:15 1019 30.09 849 25.07 19.4 66.9 42 6.2 43.1
16:20 1019 30.09 849 25.07 19.4 66.8 42 6.2 43.2
16:25 1019 30.09 849 25.07 19.8 67.7 42 6.6 43.9
16:30 1019 30.09 849 25.07 20 67.9 43 7.2 45
16:35 1019 30.09 849 25.07 19.2 66.6 44 6.9 44.5
16:40 1019 30.09 849 25.07 19.9 67.8 43 7 44.5
16:45 1019 30.09 849 25.07 20.2 68.4 44 7.6 45.7
16:50 1019 30.09 849 25.07 19.6 67.3 44 7.3 45.2
16:55 1019 30.09 849 25.07 19.7 67.4 46 7.7 45.9
17:00 1019 30.09 849 25.07 19.5 67.1 46 7.9 46.1
17:05 1019 30.09 848 25.04 19.9 67.7 44 7.4 45.3
17:10 1019 30.09 848 25.04 20.5 68.8 41 6.8 44.3
17:15 1019 30.09 848 25.04 20.6 69 40 6.8 44.2
17:20 1019 30.09 848 25.04 21 69.7 39 6.5 43.7
17:25 1019 30.09 848 25.04 21.1 69.9 39 6.9 44.4
17:30 1019 30.09 848 25.04 20.8 69.4 41 7.3 45.1
17:35 1019 30.09 848 25.04 20.4 68.8 40 6.6 43.8
17:40 1019 30.09 848 25.04 20.2 68.3 41 6.5 43.7
17:45 1019 30.09 848 25.04 20.1 68.2 40 6.3 43.4
17:50 1019 30.09 848 25.04 20 68 40 6.2 43.2
17:55 1019 30.09 848 25.04 20 67.9 40 6.2 43.1
18:00 1019 30.09 848 25.04 20.2 68.3 41 6.7 44.1
18:05 1019 30.09 848 25.04 20.4 68.7 40 6.4 43.6
18:10 1019 30.09 848 25.04 20.3 68.5 42 7 44.6
18:15 1019 30.09 848 25.04 20 67.9 41 6.5 43.8
18:20 1019 30.09 848 25.04 19.7 67.4 44 7.2 44.9
18:25 1019 30.09 848 25.04 19.7 67.5 45 7.5 45.4
18:30 1019 30.09 848 25.04 19.8 67.6 45 7.6 45.6
18:35 1019 30.09 848 25.04 20 67.9 46 8.1 46.5
18:40 1019 30.09 848 25.04 19.5 67.1 47 8 46.4
18:45 1019 30.09 848 25.04 19.3 66.7 47 7.9 46.2
18:50 1019 30.09 848 25.04 19.1 66.4 46 7.3 45.2
18:55 1019 30.09 848 25.04 19 66.2 46 7.2 45
19:00 1019 30.09 848 25.04 19 66.1 46 7.3 45.2
19:05 1019 30.09 849 25.07 19 66.1 46 7.3 45.1
19:10 1019 30.09 849 25.07 18.9 66.1 46 7.1 44.8
19:15 1019 30.09 849 25.07 19 66.1 46 7.1 44.8
19:20 1019 30.09 849 25.07 19 66.2 46 7.3 45.1
19:25 1020 30.12 849 25.07 19 66.1 46 7.3 45.1
19:30 1020 30.12 849 25.07 18.9 66.1 46 7.2 44.9
19:35 1020 30.12 849 25.07 19 66.3 46 7.4 45.2
19:40 1020 30.12 849 25.07 19 66.2 46 7.3 45.1
19:45 1020 30.12 849 25.07 18.9 66 46 7.2 44.9
19:50 1020 30.12 849 25.07 18.8 65.9 47 7.4 45.2
19:55 1020 30.12 849 25.07 18.7 65.7 47 7.4 45.4
20:00 1020 30.12 849 25.07 18.7 65.6 48 7.4 45.4
20:05 1020 30.12 849 25.07 18.6 65.4 47 7.3 45.1
20:10 1020 30.12 849 25.07 18.5 65.4 47 7.1 44.9
20:15 1020 30.12 849 25.07 18.5 65.3 47 7.2 44.9
20:20 1020 30.12 849 25.07 18.4 65.1 48 7.3 45.2
20:25 1020 30.12 849 25.07 18.3 64.9 48 7.3 45.2
20:30 1020 30.12 849 25.07 18.2 64.8 48 7.3 45.1
20:35 1020 30.12 849 25.07 18.1 64.6 49 7.5 45.5
20:40 1020 30.12 849 25.07 18 64.4 50 7.5 45.5
20:45 1020 30.12 849 25.07 17.9 64.2 51 7.7 45.8
20:50 1020 30.12 849 25.07 17.7 63.9 52 7.8 46
20:55 1020 30.12 849 25.07 17.6 63.7 52 7.8 46
21:00 1020 30.12 849 25.07 17.5 63.5 53 7.8 46.1
21:05 1020 30.12 849 25.07 17.4 63.3 53 7.8 46.1
21:10 1020 30.12 849 25.07 17.3 63.1 54 7.9 46.2
21:15 1020 30.12 849 25.07 17.2 62.9 54 7.9 46.3
21:20 1020 30.12 849 25.07 17.1 62.7 54 7.9 46.2
21:25 1020 30.12 849 25.07 17 62.6 54 7.9 46.2
21:30 1020 30.12 850 25.1 17 62.6 55 7.9 46.2
21:35 1020 30.12 850 25.1 16.9 62.4 55 8 46.4
21:40 1020 30.12 850 25.1 16.8 62.2 55 7.9 46.2
21:45 1020 30.12 850 25.1 16.8 62.2 55 7.8 46
21:50 1020 30.12 850 25.1 16.8 62.2 54 7.6 45.7
21:55 1020 30.12 850 25.1 16.8 62.2 54 7.6 45.7
22:00 1021 30.15 850 25.1 16.6 61.8 56 7.8 46.1
22:05 1021 30.15 850 25.1 16.2 61.2 59 8.2 46.8
22:10 1021 30.15 850 25.1 16 60.8 56 7.4 45.4
22:15 1021 30.15 850 25.1 16.2 61.1 58 8 46.5
22:20 1021 30.15 850 25.1 16 60.8 57 7.6 45.7
22:25 1021 30.15 850 25.1 16.3 61.4 56 7.6 45.7
22:30 1021 30.15 850 25.1 16.3 61.3 56 7.7 45.8
22:35 1021 30.15 850 25.1 16.3 61.4 56 7.5 45.5
22:40 1021 30.15 850 25.1 16.2 61.2 57 7.7 45.9
22:45 1021 30.15 850 25.1 16 60.8 57 7.6 45.7
22:50 1021 30.15 850 25.1 15.8 60.5 59 7.8 46.1
22:55 1021 30.15 850 25.1 15.6 60.1 59 7.7 45.8
23:00 1021 30.15 850 25.1 15.5 59.9 60 7.7 45.9
23:05 1021 30.15 850 25.1 15.4 59.6 60 7.8 46
23:10 1021 30.15 850 25.1 15.2 59.3 61 7.9 46.2
23:15 1021 30.15 850 25.1 15.1 59.1 62 7.9 46.1
23:20 1021 30.15 850 25.1 15.1 59.2 62 7.8 46.1
23:25 1021 30.15 850 25.1 15.2 59.3 62 8.1 46.5
23:30 1021 30.15 850 25.1 15.1 59.2 62 8.1 46.5
23:35 1021 30.15 850 25.1 15.1 59.2 63 8.1 46.7
23:40 1021 30.15 850 25.1 15.1 59.2 63 8.2 46.8
23:45 1021 30.15 850 25.1 15.1 59.2 63 8.3 46.9
23:50 1021 30.15 850 25.1 15.1 59.2 63 8.3 46.9
23:55 1021 30.15 850 25.1 15 59 64 8.4 47.1
24:00 1021 30.15 850 25.1 15 59 64 8.3 46.9